Ames, Kansas
Current Conditions -  °F | °C
As of 2:55 AM on Wednesday 22 Oct 2014 (Local Time) from KCNK Reporting Station
Clear Clear  
Wind Chill: 60°   Ceiling: Unl
Heat Index: 60°   Visibility: 10mi
Dew Point: 56°   Wind: 15mph
Humidity: 86%   Direction: 160°SSE
Pressure: 30.03"   Gusts: NA
Location:  39.4716°N, 97.7305°W
Report Text: KCNK 220755Z AUTO 16013KT 10SM CLR 16/13 A3003 RMK AO2 SLP157 T01560133
Loading
Personal Weather Stations






























Interactive Weather Map New forecast layout! Learn more

10-Day Weather Forecast

Advertisements
Track Severe Weather on mobile